Time;durP1;ratioP1;P1;durP2;ratioP2;P2;SDS_P1;SDS_P2;PMS_P1;PMS_P2;Temp;Humidity;BMP_temperature;BMP_pressure;BME280_temperature;BME280_humidity;BME280_pressure;Samples;Min_cycle;Max_cycle;Signal;HPM_P1;HPM_P2
2023/07/13 00:01:29;;;;;;;;;;;18.90;91.20;;;;;;5008917;28;19917;-81
2023/07/13 00:03:55;;;;;;;;;;;18.80;91.60;;;;;;5026905;28;20559;-81
2023/07/13 00:06:21;;;;;;;;;;;18.90;91.20;;;;;;5028976;28;19925;-81
2023/07/13 00:08:48;;;;;;;;;;;18.70;91.70;;;;;;5023039;28;19931;-80
2023/07/13 00:11:14;;;;;;;;;;;18.60;92.00;;;;;;5018066;28;19940;-81
2023/07/13 00:13:40;;;;;;;;;;;18.60;92.10;;;;;;5021086;28;19917;-81
2023/07/13 00:16:06;;;;;;;;;;;18.60;92.30;;;;;;5022373;28;19917;-81
2023/07/13 00:18:32;;;;;;;;;;;18.60;92.40;;;;;;5015534;28;19924;-82
2023/07/13 00:21:05;;;;;;;;;;;18.70;92.30;;;;;;5024568;28;19978;-81
2023/07/13 00:23:40;;;;;;;;;;;18.70;92.20;;;;;;5005939;28;20066;-81
2023/07/13 00:26:07;;;;;;;;;;;18.70;92.20;;;;;;5024174;28;20461;-81
2023/07/13 00:28:33;;;;;;;;;;;18.80;92.20;;;;;;5024276;28;19917;-81
2023/07/13 00:30:59;;;;;;;;;;;18.70;92.30;;;;;;5022624;28;20614;-81
2023/07/13 00:33:25;;;;;;;;;;;18.80;92.10;;;;;;5023615;28;20443;-81
2023/07/13 00:35:50;;;;;;;;;;;18.90;91.80;;;;;;5023561;28;20027;-80
2023/07/13 00:38:16;;;;;;;;;;;18.60;92.30;;;;;;5023894;28;19966;-81
2023/07/13 00:40:42;;;;;;;;;;;18.60;92.40;;;;;;5023404;28;19978;-81
2023/07/13 00:43:18;;;;;;;;;;;18.50;92.60;;;;;;5023188;28;19970;-80
2023/07/13 00:45:44;;;;;;;;;;;18.60;92.70;;;;;;5005606;28;19925;-80
2023/07/13 00:48:10;;;;;;;;;;;18.70;92.50;;;;;;5023276;28;20359;-82
2023/07/13 00:50:36;;;;;;;;;;;18.60;92.50;;;;;;5004610;28;19979;-82
2023/07/13 00:53:03;;;;;;;;;;;18.60;92.80;;;;;;5004915;28;19923;-82
2023/07/13 00:55:28;;;;;;;;;;;18.60;93.20;;;;;;5023209;28;20320;-82
2023/07/13 00:57:54;;;;;;;;;;;18.80;92.80;;;;;;5023772;28;20574;-82
2023/07/13 01:00:21;;;;;;;;;;;18.80;92.40;;;;;;5023422;28;19928;-81
2023/07/13 01:02:48;;;;;;;;;;;19.00;92.40;;;;;;5005800;28;20020;-81
2023/07/13 01:05:14;;;;;;;;;;;19.00;92.50;;;;;;5022459;28;20042;-82
2023/07/13 01:07:41;;;;;;;;;;;19.00;92.10;;;;;;5023133;28;19956;-84
2023/07/13 01:10:07;;;;;;;;;;;19.00;92.10;;;;;;5022178;28;19947;-83
2023/07/13 01:12:33;;;;;;;;;;;19.10;92.10;;;;;;5021913;28;19921;-84
2023/07/13 01:15:00;;;;;;;;;;;19.00;92.30;;;;;;5020706;28;19924;-82
2023/07/13 01:17:26;;;;;;;;;;;19.00;92.30;;;;;;5004036;28;19944;-83
2023/07/13 01:19:51;;;;;;;;;;;19.00;92.40;;;;;;5021902;28;19923;-83
2023/07/13 01:22:18;;;;;;;;;;;18.90;92.50;;;;;;5020852;28;19921;-83
2023/07/13 01:24:44;;;;;;;;;;;18.90;92.40;;;;;;5022144;28;19975;-82
2023/07/13 01:27:11;;;;;;;;;;;18.90;92.60;;;;;;5022025;28;19994;-82
2023/07/13 01:29:43;;;;;;;;;;;18.90;92.50;;;;;;5003853;28;19917;-83
2023/07/13 01:32:10;;;;;;;;;;;18.90;92.40;;;;;;5002294;28;19975;-81
2023/07/13 01:34:37;;;;;;;;;;;19.00;92.20;;;;;;5022055;28;19917;-83
2023/07/13 01:37:03;;;;;;;;;;;19.00;92.10;;;;;;5020246;28;19917;-82
2023/07/13 01:39:28;;;;;;;;;;;19.00;92.00;;;;;;5021450;28;19944;-83
2023/07/13 01:41:54;;;;;;;;;;;18.80;92.10;;;;;;5022052;28;20000;-82
2023/07/13 01:44:20;;;;;;;;;;;18.50;92.70;;;;;;5003972;28;19964;-83
2023/07/13 01:46:45;;;;;;;;;;;18.40;93.00;;;;;;5022377;28;20610;-83
2023/07/13 01:49:11;;;;;;;;;;;18.30;93.20;;;;;;5022230;28;20574;-81
2023/07/13 01:51:37;;;;;;;;;;;18.20;93.40;;;;;;5004148;28;20015;-82
2023/07/13 01:54:02;;;;;;;;;;;18.10;93.60;;;;;;5022763;28;19944;-83
2023/07/13 01:56:28;;;;;;;;;;;18.00;93.80;;;;;;5021516;28;20364;-83
2023/07/13 01:58:53;;;;;;;;;;;17.90;94.00;;;;;;5020083;28;19921;-83
2023/07/13 02:01:19;;;;;;;;;;;17.90;94.00;;;;;;5021185;28;20457;-83
2023/07/13 02:03:45;;;;;;;;;;;17.80;94.00;;;;;;5021171;28;19966;-83
2023/07/13 02:06:10;;;;;;;;;;;17.80;94.20;;;;;;5021635;28;20249;-82
2023/07/13 02:08:36;;;;;;;;;;;17.80;94.40;;;;;;5003269;28;19917;-82
2023/07/13 02:11:03;;;;;;;;;;;17.80;94.60;;;;;;5020664;28;20011;-82
2023/07/13 02:13:28;;;;;;;;;;;17.90;94.50;;;;;;5002515;28;20040;-82
2023/07/13 02:15:54;;;;;;;;;;;17.80;94.70;;;;;;5003388;28;21161;-82
2023/07/13 02:18:19;;;;;;;;;;;17.70;94.90;;;;;;5002113;28;19917;-82
2023/07/13 02:20:45;;;;;;;;;;;17.70;94.90;;;;;;5002952;28;19921;-83
2023/07/13 02:23:11;;;;;;;;;;;17.90;94.60;;;;;;5021240;28;19924;-83
2023/07/13 02:25:37;;;;;;;;;;;17.70;94.50;;;;;;5020819;28;20372;-82
2023/07/13 02:28:03;;;;;;;;;;;17.70;94.60;;;;;;5002620;28;19931;-82
2023/07/13 02:30:29;;;;;;;;;;;17.60;94.50;;;;;;5021123;28;20449;-81
2023/07/13 02:32:58;;;;;;;;;;;17.50;94.80;;;;;;5003095;28;20572;-82
2023/07/13 02:35:23;;;;;;;;;;;17.40;94.90;;;;;;5017377;28;19923;-82
2023/07/13 02:37:49;;;;;;;;;;;17.40;95.10;;;;;;5003252;28;20296;-82
2023/07/13 02:40:15;;;;;;;;;;;17.40;95.40;;;;;;5018485;28;19940;-82
2023/07/13 02:42:40;;;;;;;;;;;17.30;95.60;;;;;;5021600;28;19948;-83
2023/07/13 02:45:07;;;;;;;;;;;17.30;95.70;;;;;;5018985;28;20435;-82
2023/07/13 02:47:33;;;;;;;;;;;17.30;95.60;;;;;;5021529;28;20347;-82
2023/07/13 02:49:58;;;;;;;;;;;17.50;94.80;;;;;;5021520;28;19925;-82
2023/07/13 02:52:24;;;;;;;;;;;17.30;94.90;;;;;;5020052;28;20925;-81
2023/07/13 02:54:50;;;;;;;;;;;17.40;94.90;;;;;;5021330;28;20378;-80
2023/07/13 02:57:15;;;;;;;;;;;17.50;94.60;;;;;;5021321;28;20594;-81
2023/07/13 02:59:41;;;;;;;;;;;17.60;94.40;;;;;;5021282;28;19984;-81
2023/07/13 03:02:06;;;;;;;;;;;17.70;94.20;;;;;;5025860;28;19916;-83
2023/07/13 03:04:32;;;;;;;;;;;17.70;94.00;;;;;;5022665;28;20335;-82
2023/07/13 03:06:58;;;;;;;;;;;17.50;94.30;;;;;;5022048;28;19922;-83
2023/07/13 03:09:26;;;;;;;;;;;17.50;94.60;;;;;;5003519;28;20451;-82
2023/07/13 03:11:53;;;;;;;;;;;17.40;94.70;;;;;;5032850;28;19918;-83
2023/07/13 03:14:18;;;;;;;;;;;17.40;94.70;;;;;;5026685;28;20019;-82
2023/07/13 03:16:44;;;;;;;;;;;17.40;94.50;;;;;;5005363;28;19917;-82
2023/07/13 03:19:09;;;;;;;;;;;17.40;94.50;;;;;;5008860;28;20000;-83
2023/07/13 03:21:35;;;;;;;;;;;17.30;94.50;;;;;;5022520;28;19917;-82
2023/07/13 03:24:00;;;;;;;;;;;17.30;94.60;;;;;;5038376;28;19925;-82
2023/07/13 03:26:26;;;;;;;;;;;17.20;94.70;;;;;;5032619;28;19917;-82
2023/07/13 03:28:51;;;;;;;;;;;17.10;95.00;;;;;;5029702;28;20327;-82
2023/07/13 03:31:19;;;;;;;;;;;16.90;95.10;;;;;;5024588;28;19976;-82
2023/07/13 03:33:44;;;;;;;;;;;16.90;95.40;;;;;;5012685;28;19924;-84
2023/07/13 03:36:13;;;;;;;;;;;16.70;95.70;;;;;;5024727;28;19917;-83
2023/07/13 03:38:38;;;;;;;;;;;16.70;96.10;;;;;;5010241;28;19962;-83
2023/07/13 03:41:04;;;;;;;;;;;16.70;96.30;;;;;;5022358;28;19921;-83
2023/07/13 03:43:29;;;;;;;;;;;16.90;95.70;;;;;;5004923;28;20000;-82
2023/07/13 03:45:55;;;;;;;;;;;16.80;95.70;;;;;;5023509;28;20451;-82
2023/07/13 03:48:21;;;;;;;;;;;16.70;95.70;;;;;;5020087;28;20420;-81
2023/07/13 03:50:47;;;;;;;;;;;16.60;96.50;;;;;;5023939;28;19925;-82
2023/07/13 03:53:12;;;;;;;;;;;16.70;96.30;;;;;;5024140;28;20647;-82
2023/07/13 03:55:38;;;;;;;;;;;16.50;96.60;;;;;;5022672;28;19917;-81
2023/07/13 03:58:22;;;;;;;;;;;16.70;96.40;;;;;;5023150;28;19963;-83
2023/07/13 04:00:47;;;;;;;;;;;16.70;96.10;;;;;;5024177;28;19913;-82
2023/07/13 04:03:13;;;;;;;;;;;16.70;96.20;;;;;;5023842;28;19921;-82
2023/07/13 04:05:40;;;;;;;;;;;16.80;95.80;;;;;;5022392;28;19928;-82
2023/07/13 04:08:06;;;;;;;;;;;16.80;95.80;;;;;;5006232;28;19917;-81
2023/07/13 04:10:31;;;;;;;;;;;16.90;95.60;;;;;;5006379;28;19940;-83
2023/07/13 04:12:57;;;;;;;;;;;16.80;95.40;;;;;;5023509;28;19972;-83
2023/07/13 04:15:22;;;;;;;;;;;16.90;95.20;;;;;;5005844;28;20003;-83
2023/07/13 04:17:48;;;;;;;;;;;16.80;95.00;;;;;;5023694;28;20040;-82
2023/07/13 04:20:13;;;;;;;;;;;16.90;94.70;;;;;;5023317;28;19917;-83
2023/07/13 04:22:39;;;;;;;;;;;16.90;94.50;;;;;;5023530;28;19917;-82
2023/07/13 04:25:05;;;;;;;;;;;17.00;94.40;;;;;;5023852;28;20463;-81
2023/07/13 04:27:30;;;;;;;;;;;17.10;93.80;;;;;;5022259;28;19987;-81
2023/07/13 04:29:56;;;;;;;;;;;17.00;93.50;;;;;;5024376;28;19917;-82
2023/07/13 04:32:21;;;;;;;;;;;17.00;93.50;;;;;;5024553;28;20582;-82
2023/07/13 04:34:47;;;;;;;;;;;16.80;93.60;;;;;;5023535;28;19924;-80
2023/07/13 04:37:12;;;;;;;;;;;16.70;93.70;;;;;;5024325;28;19918;-80
2023/07/13 04:39:38;;;;;;;;;;;16.70;93.90;;;;;;5019664;28;19917;-80
2023/07/13 04:42:04;;;;;;;;;;;16.60;93.70;;;;;;5023308;28;19928;-80
2023/07/13 04:44:29;;;;;;;;;;;16.60;94.00;;;;;;5023129;28;19925;-80
2023/07/13 04:46:55;;;;;;;;;;;16.60;93.90;;;;;;5021740;28;19920;-79
2023/07/13 04:49:20;;;;;;;;;;;16.60;93.90;;;;;;5021891;28;20523;-81
2023/07/13 04:51:46;;;;;;;;;;;16.60;93.70;;;;;;5021094;28;20481;-80
2023/07/13 04:54:11;;;;;;;;;;;16.70;93.40;;;;;;5005350;28;19921;-80
2023/07/13 04:56:37;;;;;;;;;;;16.70;93.00;;;;;;5022654;28;19924;-79
2023/07/13 04:59:03;;;;;;;;;;;16.80;92.90;;;;;;5005064;28;19921;-80
2023/07/13 05:01:28;;;;;;;;;;;16.80;92.90;;;;;;5002564;28;19924;-80
2023/07/13 05:03:56;;;;;;;;;;;16.80;92.80;;;;;;5004936;28;19928;-80
2023/07/13 05:06:21;;;;;;;;;;;16.90;92.60;;;;;;5022491;28;19924;-79
2023/07/13 05:08:47;;;;;;;;;;;17.00;92.50;;;;;;5026445;28;19916;-78
2023/07/13 05:11:12;;;;;;;;;;;17.60;91.80;;;;;;5021352;28;20778;-78
2023/07/13 05:13:38;;;;;;;;;;;19.00;87.80;;;;;;5021664;28;19928;-78
2023/07/13 05:16:05;;;;;;;;;;;20.40;81.30;;;;;;5005653;28;19917;-78
2023/07/13 05:18:31;;;;;;;;;;;21.50;77.40;;;;;;5021683;28;19967;-78
2023/07/13 05:20:57;;;;;;;;;;;21.50;75.40;;;;;;5003550;28;20388;-78
2023/07/13 05:23:23;;;;;;;;;;;20.20;79.40;;;;;;5008398;28;19923;-78
2023/07/13 05:25:49;;;;;;;;;;;20.60;79.40;;;;;;5005107;28;19929;-78
2023/07/13 05:28:14;;;;;;;;;;;21.80;75.20;;;;;;5020419;28;20043;-77
2023/07/13 05:30:40;;;;;;;;;;;23.00;71.80;;;;;;5001429;28;20027;-78
2023/07/13 05:33:05;;;;;;;;;;;23.10;70.00;;;;;;5020368;28;20098;-81
2023/07/13 05:35:31;;;;;;;;;;;23.40;68.00;;;;;;5018415;28;19917;-81
2023/07/13 05:37:56;;;;;;;;;;;23.50;66.80;;;;;;5022224;28;19943;-80
2023/07/13 05:40:22;;;;;;;;;;;23.30;69.60;;;;;;5004691;28;20279;-80
2023/07/13 05:42:47;;;;;;;;;;;23.80;66.60;;;;;;5001306;28;20392;-81
2023/07/13 05:45:13;;;;;;;;;;;24.20;65.30;;;;;;5020319;28;20685;-81
2023/07/13 05:47:38;;;;;;;;;;;24.70;64.20;;;;;;5003108;28;20355;-81
2023/07/13 05:50:04;;;;;;;;;;;25.40;62.40;;;;;;5025469;28;19925;-81
2023/07/13 05:52:30;;;;;;;;;;;25.90;61.10;;;;;;5008611;28;20019;-82
2023/07/13 05:54:55;;;;;;;;;;;26.40;60.20;;;;;;5026365;28;20400;-83
2023/07/13 05:57:21;;;;;;;;;;;26.20;59.30;;;;;;5006753;28;19918;-81
2023/07/13 05:59:46;;;;;;;;;;;26.40;58.70;;;;;;5025412;28;19921;-82
2023/07/13 06:02:14;;;;;;;;;;;26.40;58.80;;;;;;5011655;28;19987;-83
2023/07/13 06:04:39;;;;;;;;;;;26.00;59.10;;;;;;5029247;28;20568;-81
2023/07/13 06:07:05;;;;;;;;;;;26.40;59.00;;;;;;5007782;28;19975;-82
2023/07/13 06:09:31;;;;;;;;;;;26.80;58.70;;;;;;5017570;28;19944;-82
2023/07/13 06:11:56;;;;;;;;;;;27.40;56.40;;;;;;5021374;28;19917;-84
2023/07/13 06:14:22;;;;;;;;;;;27.60;55.70;;;;;;5003886;28;19917;-83
2023/07/13 06:16:47;;;;;;;;;;;27.10;55.60;;;;;;5006310;28;20685;-83
2023/07/13 06:19:13;;;;;;;;;;;26.80;57.00;;;;;;5001537;28;19976;-83
2023/07/13 06:21:38;;;;;;;;;;;27.60;55.20;;;;;;5018594;28;19924;-84
2023/07/13 06:24:04;;;;;;;;;;;28.00;53.10;;;;;;5021388;28;19996;-83
2023/07/13 06:26:30;;;;;;;;;;;28.10;54.00;;;;;;5017945;28;19928;-82
2023/07/13 06:28:55;;;;;;;;;;;28.50;52.40;;;;;;5009430;28;19925;-84
2023/07/13 06:31:21;;;;;;;;;;;28.80;52.10;;;;;;5017512;28;20462;-83
2023/07/13 06:33:46;;;;;;;;;;;28.80;52.60;;;;;;5019189;28;19955;-85
2023/07/13 06:36:12;;;;;;;;;;;28.40;53.70;;;;;;5013653;28;19970;-84
2023/07/13 06:38:38;;;;;;;;;;;28.20;53.10;;;;;;5013122;28;19999;-84
2023/07/13 06:41:04;;;;;;;;;;;28.00;54.70;;;;;;5009811;28;20477;-84
2023/07/13 06:43:31;;;;;;;;;;;29.10;51.90;;;;;;5015990;28;19917;-85
2023/07/13 06:45:57;;;;;;;;;;;29.50;51.30;;;;;;5020350;28;19975;-84
2023/07/13 06:48:22;;;;;;;;;;;29.70;50.40;;;;;;5020732;28;19932;-84
2023/07/13 06:50:49;;;;;;;;;;;28.80;51.60;;;;;;5015341;28;19932;-83
2023/07/13 06:53:15;;;;;;;;;;;30.40;50.80;;;;;;5023584;28;19917;-84
2023/07/13 06:55:43;;;;;;;;;;;29.60;50.50;;;;;;5014181;28;20366;-83
2023/07/13 06:58:08;;;;;;;;;;;26.70;55.80;;;;;;5020841;28;20467;-84
2023/07/13 07:00:34;;;;;;;;;;;25.50;58.70;;;;;;5029381;28;19958;-83
2023/07/13 07:02:59;;;;;;;;;;;24.80;60.00;;;;;;4997704;28;19924;-83
2023/07/13 07:05:25;;;;;;;;;;;24.70;61.10;;;;;;5022534;28;19926;-83
2023/07/13 07:07:51;;;;;;;;;;;24.20;61.70;;;;;;5026093;28;20603;-83
2023/07/13 07:10:17;;;;;;;;;;;23.40;64.30;;;;;;5025184;28;19913;-83
2023/07/13 07:12:43;;;;;;;;;;;23.70;64.80;;;;;;5011637;28;19922;-83
2023/07/13 07:15:08;;;;;;;;;;;23.80;63.90;;;;;;5025286;28;20506;-83
2023/07/13 07:17:34;;;;;;;;;;;23.90;64.20;;;;;;5018790;28;19960;-83
2023/07/13 07:19:59;;;;;;;;;;;24.30;62.80;;;;;;5000782;28;20346;-83
2023/07/13 07:22:27;;;;;;;;;;;25.20;60.50;;;;;;5008098;28;19999;-83
2023/07/13 07:24:53;;;;;;;;;;;25.90;59.20;;;;;;5002080;28;19921;-84
2023/07/13 07:27:18;;;;;;;;;;;29.70;51.40;;;;;;5004367;28;19996;-83
2023/07/13 07:29:44;;;;;;;;;;;30.10;48.80;;;;;;5007261;28;20617;-84
2023/07/13 07:32:09;;;;;;;;;;;27.50;53.20;;;;;;5007346;28;19935;-84
2023/07/13 07:34:35;;;;;;;;;;;25.90;55.80;;;;;;5019716;28;19940;-83
2023/07/13 07:37:01;;;;;;;;;;;25.70;58.70;;;;;;5007307;28;19975;-83
2023/07/13 07:39:27;;;;;;;;;;;25.70;59.00;;;;;;5007372;28;20431;-84
2023/07/13 07:41:55;;;;;;;;;;;24.10;61.30;;;;;;5006853;28;20441;-83
2023/07/13 07:44:20;;;;;;;;;;;24.10;61.80;;;;;;5026898;28;19932;-83
2023/07/13 07:46:46;;;;;;;;;;;24.30;61.50;;;;;;5027692;28;19951;-82
2023/07/13 07:49:11;;;;;;;;;;;24.30;60.50;;;;;;5033910;28;19916;-84
2023/07/13 07:51:37;;;;;;;;;;;24.40;61.40;;;;;;5016291;28;20762;-83
2023/07/13 07:54:03;;;;;;;;;;;24.50;61.60;;;;;;5013321;28;20455;-84
2023/07/13 07:56:29;;;;;;;;;;;24.60;61.70;;;;;;5034453;28;19926;-83
2023/07/13 07:58:55;;;;;;;;;;;24.10;61.90;;;;;;5028916;28;19917;-83
2023/07/13 08:01:20;;;;;;;;;;;24.00;62.80;;;;;;5012969;28;20024;-83
2023/07/13 08:03:46;;;;;;;;;;;26.40;60.70;;;;;;5026076;28;20714;-83
2023/07/13 08:06:12;;;;;;;;;;;31.30;50.80;;;;;;5007887;28;20348;-84
2023/07/13 08:08:37;;;;;;;;;;;33.60;45.40;;;;;;5023543;28;19940;-84
2023/07/13 08:11:04;;;;;;;;;;;33.40;42.80;;;;;;5024764;28;20418;-84
2023/07/13 08:13:29;;;;;;;;;;;34.90;42.30;;;;;;5027266;28;19920;-84
2023/07/13 08:15:55;;;;;;;;;;;35.60;41.20;;;;;;5024275;28;19917;-84
2023/07/13 08:18:20;;;;;;;;;;;29.80;45.60;;;;;;5016512;28;19921;-84
2023/07/13 08:20:46;;;;;;;;;;;26.60;54.30;;;;;;5023814;28;19925;-83
2023/07/13 08:23:12;;;;;;;;;;;24.90;58.90;;;;;;5028781;28;20390;-83
2023/07/13 08:25:37;;;;;;;;;;;24.80;57.80;;;;;;4999622;28;20376;-84
2023/07/13 08:28:04;;;;;;;;;;;25.90;59.20;;;;;;5026946;28;19917;-83
2023/07/13 08:30:29;;;;;;;;;;;31.10;49.50;;;;;;5006709;28;20011;-83
2023/07/13 08:32:55;;;;;;;;;;;34.90;45.10;;;;;;5004374;28;19917;-83
2023/07/13 08:35:20;;;;;;;;;;;35.40;43.70;;;;;;5026617;28;19963;-84
2023/07/13 08:37:46;;;;;;;;;;;36.50;39.70;;;;;;5022561;28;19960;-84
2023/07/13 08:40:11;;;;;;;;;;;35.50;39.80;;;;;;5012370;28;20262;-83
2023/07/13 08:42:41;;;;;;;;;;;30.40;47.00;;;;;;5020559;28;20003;-83
2023/07/13 08:45:19;;;;;;;;;;;27.20;52.70;;;;;;5005424;28;19929;-83
2023/07/13 08:47:48;;;;;;;;;;;26.10;55.50;;;;;;5013454;28;20347;-84
2023/07/13 08:50:15;;;;;;;;;;;25.40;55.20;;;;;;5017665;28;20398;-84
2023/07/13 08:52:43;;;;;;;;;;;29.70;51.80;;;;;;5015275;28;19948;-83
2023/07/13 08:55:14;;;;;;;;;;;35.40;43.40;;;;;;5015748;28;19913;-83
2023/07/13 08:57:41;;;;;;;;;;;36.60;39.60;;;;;;5020905;28;19917;-84
2023/07/13 09:00:11;;;;;;;;;;;34.40;40.40;;;;;;5015214;28;19922;-83
2023/07/13 09:02:55;;;;;;;;;;;29.50;48.40;;;;;;5005780;28;19923;-84
2023/07/13 09:05:24;;;;;;;;;;;27.40;49.50;;;;;;5025022;28;21050;-83
2023/07/13 09:08:12;;;;;;;;;;;27.20;53.30;;;;;;5026816;28;19917;-84
2023/07/13 09:10:43;;;;;;;;;;;33.00;43.90;;;;;;5009433;28;20647;-84
2023/07/13 09:13:21;;;;;;;;;;;34.90;43.30;;;;;;5031933;28;20003;-83
2023/07/13 09:15:47;;;;;;;;;;;30.70;46.60;;;;;;5021935;28;19952;-84
2023/07/13 09:18:19;;;;;;;;;;;32.80;46.80;;;;;;5023595;28;19917;-83
2023/07/13 09:20:47;;;;;;;;;;;33.50;42.80;;;;;;5009045;28;19919;-84
2023/07/13 09:23:15;;;;;;;;;;;29.40;47.50;;;;;;5009339;28;20407;-84
2023/07/13 09:25:42;;;;;;;;;;;26.60;51.20;;;;;;5004564;28;20063;-83
2023/07/13 09:28:15;;;;;;;;;;;29.10;50.80;;;;;;5002946;28;20281;-84
2023/07/13 09:30:46;;;;;;;;;;;34.20;44.70;;;;;;5017513;28;20384;-84
2023/07/13 09:33:12;;;;;;;;;;;34.50;40.20;;;;;;5007976;28;19920;-84
2023/07/13 09:35:37;;;;;;;;;;;28.40;50.10;;;;;;5037924;28;19917;-85
2023/07/13 09:38:14;;;;;;;;;;;26.50;53.50;;;;;;5021335;28;19936;-84
2023/07/13 09:40:46;;;;;;;;;;;25.30;54.20;;;;;;5021183;28;20375;-83
2023/07/13 09:43:13;;;;;;;;;;;25.60;54.70;;;;;;5004369;28;20364;-83
2023/07/13 09:45:39;;;;;;;;;;;27.60;52.30;;;;;;5020796;28;19967;-83
2023/07/13 09:48:13;;;;;;;;;;;28.70;48.90;;;;;;5033214;28;20041;-83
2023/07/13 09:50:39;;;;;;;;;;;34.50;43.90;;;;;;5014036;28;19989;-83
2023/07/13 09:53:10;;;;;;;;;;;37.10;41.20;;;;;;4996509;28;19917;-85
2023/07/13 09:55:38;;;;;;;;;;;38.50;38.10;;;;;;5011023;28;19917;-83
2023/07/13 09:58:10;;;;;;;;;;;37.70;33.60;;;;;;5018867;28;19913;-85
2023/07/13 10:00:36;;;;;;;;;;;38.10;37.10;;;;;;5023893;28;19948;-84
2023/07/13 10:03:05;;;;;;;;;;;38.40;37.90;;;;;;5023214;28;20428;-83
2023/07/13 10:05:39;;;;;;;;;;;32.80;40.30;;;;;;5006356;28;19925;-83
2023/07/13 10:08:07;;;;;;;;;;;28.70;46.90;;;;;;5012923;28;20060;-84
2023/07/13 10:10:32;;;;;;;;;;;26.80;50.80;;;;;;5004622;28;20000;-83
2023/07/13 10:12:58;;;;;;;;;;;33.20;45.50;;;;;;5021376;28;19919;-84
2023/07/13 10:15:25;;;;;;;;;;;35.70;42.40;;;;;;5022591;28;19917;-84
2023/07/13 10:17:52;;;;;;;;;;;37.20;40.10;;;;;;5006907;28;19919;-83
2023/07/13 10:20:18;;;;;;;;;;;36.70;38.40;;;;;;5022547;28;19923;-84
2023/07/13 10:23:01;;;;;;;;;;;34.50;39.00;;;;;;5008638;28;19929;-83
2023/07/13 10:25:31;;;;;;;;;;;35.10;41.20;;;;;;5004427;28;20012;-83
2023/07/13 10:28:05;;;;;;;;;;;33.30;38.20;;;;;;5027622;28;19917;-83
2023/07/13 10:30:32;;;;;;;;;;;29.40;44.90;;;;;;5024294;28;19913;-83
2023/07/13 10:32:59;;;;;;;;;;;28.80;44.90;;;;;;5007947;28;20376;-83
2023/07/13 10:35:27;;;;;;;;;;;32.80;39.60;;;;;;5012345;28;19918;-83
2023/07/13 10:37:55;;;;;;;;;;;35.60;36.70;;;;;;5020313;28;19975;-83
2023/07/13 10:40:26;;;;;;;;;;;36.00;33.70;;;;;;5019639;28;19924;-83
2023/07/13 10:42:54;;;;;;;;;;;36.40;36.20;;;;;;5004103;28;19917;-84
2023/07/13 10:45:23;;;;;;;;;;;35.70;31.60;;;;;;5003483;28;19921;-84
2023/07/13 10:47:52;;;;;;;;;;;34.90;33.10;;;;;;5022115;28;20347;-83
2023/07/13 10:50:21;;;;;;;;;;;33.40;34.80;;;;;;5012596;28;19929;-83
2023/07/13 10:52:50;;;;;;;;;;;33.30;36.10;;;;;;5031499;28;19913;-84
2023/07/13 10:55:35;;;;;;;;;;;31.70;41.10;;;;;;5019360;28;19913;-84
2023/07/13 10:58:02;;;;;;;;;;;30.40;41.70;;;;;;5014788;28;19917;-83
2023/07/13 11:00:30;;;;;;;;;;;29.80;43.50;;;;;;5014847;28;20603;-84
2023/07/13 11:02:57;;;;;;;;;;;29.50;40.00;;;;;;5004442;28;19918;-84
2023/07/13 11:05:26;;;;;;;;;;;28.80;42.20;;;;;;5007876;28;19932;-84
2023/07/13 11:07:55;;;;;;;;;;;28.40;45.70;;;;;;5015388;28;20344;-84
2023/07/13 11:10:39;;;;;;;;;;;27.60;50.20;;;;;;5022195;28;19913;-84
2023/07/13 11:13:25;;;;;;;;;;;26.90;50.80;;;;;;5027927;28;19923;-83
2023/07/13 11:15:50;;;;;;;;;;;26.80;49.40;;;;;;5026726;28;20034;-84
2023/07/13 11:18:20;;;;;;;;;;;28.00;49.00;;;;;;5027386;28;20400;-83
2023/07/13 11:20:48;;;;;;;;;;;28.40;47.80;;;;;;5026200;28;19913;-84
2023/07/13 11:23:16;;;;;;;;;;;27.70;47.10;;;;;;5028181;28;19921;-83
2023/07/13 11:25:42;;;;;;;;;;;27.50;51.00;;;;;;5019283;28;19971;-84
2023/07/13 11:28:10;;;;;;;;;;;27.20;49.40;;;;;;5023655;28;19948;-84
2023/07/13 11:30:43;;;;;;;;;;;26.30;52.00;;;;;;5015782;28;19914;-83
2023/07/13 11:33:14;;;;;;;;;;;25.90;55.00;;;;;;5020001;28;19935;-84
2023/07/13 11:35:49;;;;;;;;;;;26.30;54.10;;;;;;5021449;28;19913;-84
2023/07/13 11:38:23;;;;;;;;;;;26.60;49.60;;;;;;5018822;28;19923;-83
2023/07/13 11:40:52;;;;;;;;;;;26.70;50.40;;;;;;5013885;28;19916;-83
2023/07/13 11:43:18;;;;;;;;;;;26.50;47.50;;;;;;4998912;28;20469;-84
2023/07/13 11:45:44;;;;;;;;;;;26.60;48.20;;;;;;5012783;28;19933;-84
2023/07/13 11:48:23;;;;;;;;;;;26.30;45.80;;;;;;5001134;28;19917;-82
2023/07/13 11:50:54;;;;;;;;;;;26.70;48.90;;;;;;5003378;28;19929;-84
2023/07/13 11:53:20;;;;;;;;;;;26.60;47.10;;;;;;5007032;28;20005;-83
2023/07/13 11:55:46;;;;;;;;;;;26.40;46.90;;;;;;5020737;28;20759;-82
2023/07/13 11:58:17;;;;;;;;;;;26.20;49.40;;;;;;5006066;28;19919;-83
2023/07/13 12:00:42;;;;;;;;;;;26.50;50.90;;;;;;5020429;28;19990;-83
2023/07/13 12:03:11;;;;;;;;;;;26.70;49.60;;;;;;5011605;28;19931;-84
2023/07/13 12:05:36;;;;;;;;;;;26.70;49.70;;;;;;5029740;28;20011;-84
2023/07/13 12:08:08;;;;;;;;;;;26.20;48.90;;;;;;5011954;28;20382;-83
2023/07/13 12:10:34;;;;;;;;;;;26.70;50.60;;;;;;5024157;28;20410;-84
2023/07/13 12:13:04;;;;;;;;;;;26.80;51.20;;;;;;5011188;28;19913;-82
2023/07/13 12:15:36;;;;;;;;;;;26.60;49.80;;;;;;5021892;28;19980;-83
2023/07/13 12:18:01;;;;;;;;;;;26.60;51.50;;;;;;5017795;28;19917;-83
2023/07/13 12:20:29;;;;;;;;;;;27.00;49.30;;;;;;5013670;28;19993;-84
2023/07/13 12:22:56;;;;;;;;;;;26.90;49.60;;;;;;5020177;28;20070;-84
2023/07/13 12:25:22;;;;;;;;;;;27.10;50.10;;;;;;5023515;28;20529;-83
2023/07/13 12:27:49;;;;;;;;;;;26.70;48.30;;;;;;5002562;28;19913;-84
2023/07/13 12:30:23;;;;;;;;;;;26.50;49.40;;;;;;5015681;28;19989;-83
2023/07/13 12:33:08;;;;;;;;;;;26.10;46.20;;;;;;5014455;28;19923;-83
2023/07/13 12:35:39;;;;;;;;;;;26.50;51.10;;;;;;4986834;28;20298;-83
2023/07/13 12:38:08;;;;;;;;;;;26.30;50.80;;;;;;5016417;28;19936;-83
2023/07/13 12:40:36;;;;;;;;;;;26.30;52.50;;;;;;5019668;28;19913;-83
2023/07/13 12:43:04;;;;;;;;;;;26.30;50.30;;;;;;5003342;28;19913;-84
2023/07/13 12:45:30;;;;;;;;;;;26.40;50.10;;;;;;5012781;28;19921;-83
2023/07/13 12:48:09;;;;;;;;;;;26.50;51.30;;;;;;5017766;28;19931;-83
2023/07/13 12:50:40;;;;;;;;;;;26.50;47.40;;;;;;5021958;28;19936;-83
2023/07/13 12:53:12;;;;;;;;;;;26.60;48.60;;;;;;5021505;28;19990;-83
2023/07/13 12:56:00;;;;;;;;;;;26.10;46.20;;;;;;5005130;28;20003;-83
2023/07/13 12:58:30;;;;;;;;;;;25.80;45.30;;;;;;5006246;28;19960;-83
2023/07/13 13:00:57;;;;;;;;;;;25.70;44.30;;;;;;5019045;28;19924;-83
2023/07/13 13:03:34;;;;;;;;;;;25.40;46.10;;;;;;5018137;28;19917;-83
2023/07/13 13:06:02;;;;;;;;;;;25.90;47.80;;;;;;5014546;28;19926;-84
2023/07/13 13:08:28;;;;;;;;;;;25.90;50.20;;;;;;5024036;28;19913;-82
2023/07/13 13:10:54;;;;;;;;;;;25.80;52.90;;;;;;5023358;28;19921;-83
2023/07/13 13:13:20;;;;;;;;;;;25.30;54.90;;;;;;5014390;28;20392;-83
2023/07/13 13:15:45;;;;;;;;;;;25.70;51.30;;;;;;5016346;28;19920;-83
2023/07/13 13:18:15;;;;;;;;;;;25.70;53.50;;;;;;5010137;28;19919;-83
2023/07/13 13:20:40;;;;;;;;;;;25.40;55.00;;;;;;5005183;28;19913;-83
2023/07/13 13:23:11;;;;;;;;;;;25.00;55.10;;;;;;5007523;28;19919;-82
2023/07/13 13:25:36;;;;;;;;;;;25.20;55.10;;;;;;5025378;28;20436;-83
2023/07/13 13:28:02;;;;;;;;;;;24.80;52.50;;;;;;5005332;28;19913;-83
2023/07/13 13:30:27;;;;;;;;;;;25.10;56.20;;;;;;5015654;28;19913;-83
2023/07/13 13:32:53;;;;;;;;;;;24.90;54.90;;;;;;5033117;28;20011;-83
2023/07/13 13:35:20;;;;;;;;;;;25.30;52.30;;;;;;5042251;28;19913;-82
2023/07/13 13:37:47;;;;;;;;;;;25.40;49.90;;;;;;5010226;28;20003;-83
2023/07/13 13:40:17;;;;;;;;;;;25.30;51.60;;;;;;5021631;28;20479;-83
2023/07/13 13:42:45;;;;;;;;;;;25.40;55.50;;;;;;5004626;28;19917;-83
2023/07/13 13:45:12;;;;;;;;;;;25.50;52.30;;;;;;5031980;28;19974;-83
2023/07/13 13:47:38;;;;;;;;;;;25.50;51.60;;;;;;5021708;28;19917;-83
2023/07/13 13:50:14;;;;;;;;;;;25.40;48.80;;;;;;5037073;28;20055;-82
2023/07/13 13:52:40;;;;;;;;;;;25.50;49.50;;;;;;5014840;28;19913;-82
2023/07/13 13:55:32;;;;;;;;;;;25.20;47.20;;;;;;5018960;28;20734;-84
2023/07/13 13:57:57;;;;;;;;;;;25.10;48.40;;;;;;5001652;28;19913;-83
2023/07/13 14:00:24;;;;;;;;;;;25.10;49.40;;;;;;5021416;28;19967;-83
2023/07/13 14:02:51;;;;;;;;;;;25.00;49.00;;;;;;5005370;28;19928;-83
2023/07/13 14:05:24;;;;;;;;;;;25.10;48.20;;;;;;5028781;28;19971;-82
2023/07/13 14:07:50;;;;;;;;;;;25.20;47.80;;;;;;5027877;28;19913;-82
2023/07/13 14:10:18;;;;;;;;;;;25.10;48.10;;;;;;5010004;28;19912;-83
2023/07/13 14:12:47;;;;;;;;;;;25.30;47.40;;;;;;5011919;28;19920;-83
2023/07/13 14:15:33;;;;;;;;;;;25.30;46.00;;;;;;5023306;28;19920;-83
2023/07/13 14:17:59;;;;;;;;;;;25.10;46.10;;;;;;5021235;28;19913;-82